createdAt,value
2023-06-03T00:02:33.274Z,71.93
2023-06-03T00:05:35.922Z,71.77
2023-06-03T00:08:38.391Z,71.51
2023-06-03T00:11:41.044Z,71.66
2023-06-03T00:14:43.522Z,71.94
2023-06-03T00:17:46.142Z,72.03
2023-06-03T00:20:49.131Z,72.45
2023-06-03T00:23:51.961Z,72.78
2023-06-03T00:26:54.569Z,72.49
2023-06-03T00:29:57.101Z,72.33
2023-06-03T00:32:59.857Z,72.83
2023-06-03T00:36:02.567Z,72.93
2023-06-03T00:39:05.055Z,73.19
2023-06-03T00:42:07.831Z,73.65
2023-06-03T00:45:11.011Z,73.46
2023-06-03T00:48:13.771Z,73.11
2023-06-03T00:51:16.801Z,73.22
2023-06-03T00:54:19.452Z,73.56
2023-06-03T00:57:23.688Z,74.11
2023-06-03T01:00:26.368Z,74.18
2023-06-03T01:03:29.071Z,74.36
2023-06-03T01:06:47.381Z,74.40
2023-06-03T01:10:08.435Z,72.60
2023-06-03T01:13:29.881Z,73.16
2023-06-03T01:16:35.921Z,73.48
2023-06-03T01:19:49.358Z,73.27
2023-06-03T01:22:57.771Z,73.26
2023-06-03T01:26:02.507Z,73.68
2023-06-03T01:29:05.057Z,73.88
2023-06-03T01:32:15.343Z,73.95
2023-06-03T01:35:19.405Z,73.99
2023-06-03T01:38:23.937Z,74.26
2023-06-03T01:41:33.296Z,73.84
2023-06-03T01:44:37.481Z,73.55
2023-06-03T01:47:40.194Z,73.56
2023-06-03T01:50:43.879Z,73.22
2023-06-03T01:53:48.908Z,72.97
2023-06-03T01:56:51.564Z,73.30
2023-06-03T01:59:54.286Z,73.61
2023-06-03T02:02:56.818Z,74.06
2023-06-03T02:05:59.388Z,74.80
2023-06-03T02:09:02.029Z,74.86
2023-06-03T02:12:04.982Z,75.39
2023-06-03T02:15:08.431Z,75.72
2023-06-03T02:18:11.396Z,75.88
2023-06-03T02:21:14.136Z,76.26
2023-06-03T02:24:17.338Z,76.12
2023-06-03T02:27:21.902Z,76.24
2023-06-03T02:30:26.078Z,76.61
2023-06-03T02:33:28.602Z,75.44
2023-06-03T02:36:31.513Z,75.17
2023-06-03T02:39:34.070Z,75.10
2023-06-03T02:42:38.479Z,75.49
2023-06-03T02:45:41.368Z,75.97
2023-06-03T02:48:43.827Z,75.68
2023-06-03T02:51:46.481Z,75.54
2023-06-03T02:54:49.384Z,75.79
2023-06-03T02:57:52.198Z,75.18
2023-06-03T03:00:54.910Z,75.17
2023-06-03T03:03:57.505Z,74.75
2023-06-03T03:07:00.202Z,74.71
2023-06-03T03:10:02.789Z,72.31
2023-06-03T03:13:07.221Z,73.03
2023-06-03T03:16:12.166Z,72.11
2023-06-03T03:19:16.997Z,71.37
2023-06-03T03:22:19.994Z,71.54
2023-06-03T03:25:22.782Z,72.21
2023-06-03T03:28:26.148Z,71.90
2023-06-03T03:31:33.985Z,70.97
2023-06-03T03:34:38.133Z,72.14
2023-06-03T03:37:42.385Z,73.07
2023-06-03T03:40:45.938Z,73.23
2023-06-03T03:43:51.274Z,73.30
2023-06-03T03:47:00.682Z,73.54
2023-06-03T03:50:03.889Z,73.41
2023-06-03T03:53:09.544Z,72.80
2023-06-03T03:56:18.318Z,72.55
2023-06-03T03:59:28.177Z,72.69
2023-06-03T04:02:34.841Z,72.72
2023-06-03T04:05:37.943Z,72.32
2023-06-03T04:08:40.475Z,71.25
2023-06-03T04:11:44.393Z,71.26
2023-06-03T04:14:51.522Z,71.38
2023-06-03T04:17:57.704Z,70.58
2023-06-03T04:21:01.013Z,66.52
2023-06-03T04:24:06.341Z,66.21
2023-06-03T04:27:09.567Z,66.01
2023-06-03T04:30:13.185Z,66.72
2023-06-03T04:33:15.811Z,66.10
2023-06-03T04:36:18.610Z,65.67
2023-06-03T04:39:21.184Z,65.56
2023-06-03T04:42:27.760Z,64.26
2023-06-03T04:45:33.235Z,64.11
2023-06-03T04:48:37.756Z,63.83
2023-06-03T04:51:41.924Z,63.30
2023-06-03T04:54:46.972Z,61.74
2023-06-03T04:57:54.244Z,62.30
2023-06-03T05:00:58.809Z,61.81
2023-06-03T05:04:04.002Z,61.16
2023-06-03T05:07:08.174Z,60.56
2023-06-03T05:10:11.505Z,60.36
2023-06-03T05:13:15.027Z,60.13
2023-06-03T05:16:18.716Z,58.99
2023-06-03T05:19:21.514Z,58.38
2023-06-03T05:22:25.372Z,57.59
2023-06-03T05:25:28.615Z,57.26
2023-06-03T05:28:31.352Z,56.62
2023-06-03T05:31:34.104Z,57.49
2023-06-03T05:34:36.744Z,56.47
2023-06-03T05:37:39.915Z,56.83
2023-06-03T05:40:43.078Z,56.83
2023-06-03T05:43:46.161Z,58.71
2023-06-03T05:46:49.504Z,58.87
2023-06-03T05:49:52.233Z,58.77
2023-06-03T05:52:56.580Z,58.20
2023-06-03T05:56:00.706Z,57.29
2023-06-03T05:59:05.847Z,58.56
2023-06-03T06:02:13.447Z,59.12
2023-06-03T06:05:16.560Z,59.86
2023-06-03T06:08:19.818Z,59.20
2023-06-03T06:11:22.862Z,60.10
2023-06-03T06:14:25.796Z,60.10
2023-06-03T06:17:28.551Z,60.78
2023-06-03T06:20:31.735Z,60.55
2023-06-03T06:23:34.526Z,60.19
2023-06-03T06:26:40.955Z,59.35
2023-06-03T06:29:44.329Z,59.55
2023-06-03T06:32:52.597Z,59.05
2023-06-03T06:36:50.847Z,58.21
2023-06-03T06:40:03.065Z,57.61
2023-06-03T06:43:22.454Z,57.31
2023-06-03T06:46:37.993Z,57.19
2023-06-03T06:49:41.784Z,57.10
2023-06-03T06:52:44.507Z,55.83
2023-06-03T06:55:57.094Z,56.80
2023-06-03T06:59:07.679Z,56.09
2023-06-03T07:02:11.846Z,54.21
2023-06-03T07:05:16.313Z,54.19
2023-06-03T07:08:23.646Z,53.29
2023-06-03T07:11:26.708Z,52.20
2023-06-03T07:14:33.460Z,51.71
2023-06-03T07:17:36.409Z,51.75
2023-06-03T07:20:44.647Z,50.55
2023-06-03T07:23:49.386Z,50.66
2023-06-03T07:26:52.778Z,50.77
2023-06-03T07:30:02.076Z,50.43
2023-06-03T07:33:09.442Z,49.34
2023-06-03T07:36:16.108Z,48.57
2023-06-03T07:39:22.202Z,49.00
2023-06-03T07:42:30.617Z,47.57
2023-06-03T07:45:41.606Z,48.20
2023-06-03T07:48:44.109Z,47.23
2023-06-03T07:51:50.474Z,48.19
2023-06-03T07:54:53.012Z,47.39
2023-06-03T07:57:55.664Z,47.46
2023-06-03T08:00:58.206Z,47.41
2023-06-03T08:04:01.240Z,46.91
2023-06-03T08:07:04.274Z,46.08
2023-06-03T08:10:16.765Z,45.26
2023-06-03T08:13:19.497Z,44.64
2023-06-03T08:16:22.322Z,44.13
2023-06-03T08:19:25.977Z,42.98
2023-06-03T08:22:46.732Z,43.44
2023-06-03T08:25:49.854Z,42.71
2023-06-03T08:28:52.359Z,43.42
2023-06-03T08:31:54.881Z,42.90
2023-06-03T08:34:57.343Z,42.76
2023-06-03T08:37:59.942Z,43.54
2023-06-03T08:41:03.770Z,43.55
2023-06-03T08:44:19.506Z,44.76
2023-06-03T08:47:32.818Z,44.54
2023-06-03T08:50:36.634Z,44.22
2023-06-03T08:53:46.974Z,45.02
2023-06-03T08:57:20.266Z,45.04
2023-06-03T09:00:25.421Z,44.48
2023-06-03T09:03:28.273Z,45.02
2023-06-03T09:06:31.474Z,44.11
2023-06-03T09:09:36.182Z,44.69
2023-06-03T09:12:39.336Z,44.47
2023-06-03T09:15:44.026Z,44.85
2023-06-03T09:18:48.746Z,44.64
2023-06-03T09:21:54.474Z,42.79
2023-06-03T09:24:57.983Z,43.99
2023-06-03T09:28:01.046Z,43.86
2023-06-03T09:31:06.089Z,43.19
2023-06-03T09:34:08.884Z,44.88
2023-06-03T09:37:11.413Z,44.04
2023-06-03T09:40:26.049Z,43.59
2023-06-03T09:43:28.596Z,43.11
2023-06-03T09:46:32.565Z,43.78
2023-06-03T09:49:49.709Z,44.12
2023-06-03T09:52:53.437Z,43.87
2023-06-03T09:55:55.952Z,43.11
2023-06-03T09:59:22.445Z,42.27
2023-06-03T10:02:26.407Z,42.02
2023-06-03T10:05:31.102Z,40.88
2023-06-03T10:08:33.731Z,39.88
2023-06-03T10:11:48.019Z,39.07
2023-06-03T10:14:51.688Z,39.10
2023-06-03T10:17:54.420Z,38.73
2023-06-03T10:20:56.976Z,39.31
2023-06-03T10:24:02.610Z,40.62
2023-06-03T10:27:06.213Z,40.37
2023-06-03T10:30:11.526Z,38.04
2023-06-03T10:33:16.658Z,37.77
2023-06-03T10:36:21.514Z,38.50
2023-06-03T10:39:27.636Z,35.23
2023-06-03T10:42:31.264Z,35.00
2023-06-03T10:45:33.935Z,34.03
2023-06-03T10:48:38.679Z,34.72
2023-06-03T10:51:46.026Z,35.31
2023-06-03T10:54:52.913Z,35.59
2023-06-03T10:58:19.891Z,34.89
2023-06-03T11:01:22.471Z,33.33
2023-06-03T11:04:26.751Z,33.17
2023-06-03T11:07:32.409Z,33.14
2023-06-03T11:10:37.786Z,34.15
2023-06-03T11:13:46.419Z,33.12
2023-06-03T11:16:57.862Z,33.37
2023-06-03T11:20:00.941Z,32.47
2023-06-03T11:23:03.989Z,31.68
2023-06-03T11:26:31.314Z,32.09
2023-06-03T11:29:52.812Z,32.46
2023-06-03T11:33:11.349Z,31.77
2023-06-03T11:36:47.712Z,31.22
2023-06-03T11:40:09.437Z,29.58
2023-06-03T11:43:13.333Z,29.96
2023-06-03T11:46:16.604Z,29.07
2023-06-03T11:49:21.884Z,30.66
2023-06-03T11:52:25.069Z,29.10
2023-06-03T11:55:29.945Z,29.25
2023-06-03T11:58:37.212Z,27.05
2023-06-03T12:01:58.148Z,26.80
2023-06-03T12:05:05.396Z,26.54
2023-06-03T12:08:07.983Z,26.15
2023-06-03T12:11:10.647Z,25.98
2023-06-03T12:14:34.034Z,26.18
2023-06-03T12:17:37.487Z,25.93
2023-06-03T12:20:40.482Z,25.36
2023-06-03T12:23:43.222Z,24.95
2023-06-03T12:26:45.864Z,24.65
2023-06-03T12:30:00.429Z,24.23
2023-06-03T12:33:03.014Z,24.12
2023-06-03T12:36:05.729Z,22.17
2023-06-03T12:39:08.382Z,22.13
2023-06-03T12:42:12.256Z,21.66
2023-06-03T12:45:24.719Z,22.03
2023-06-03T12:48:33.227Z,21.03
2023-06-03T12:51:35.847Z,22.49
2023-06-03T12:54:38.485Z,21.01
2023-06-03T12:57:43.348Z,22.08
2023-06-03T13:00:46.312Z,20.72
2023-06-03T13:03:49.395Z,21.66
2023-06-03T13:06:52.026Z,21.32
2023-06-03T13:09:57.535Z,20.46
2023-06-03T13:13:00.030Z,21.35
2023-06-03T13:16:03.021Z,21.32
2023-06-03T13:19:05.543Z,20.67
2023-06-03T13:22:09.002Z,20.37
2023-06-03T13:25:11.652Z,20.71
2023-06-03T13:28:14.320Z,20.53
2023-06-03T13:31:17.043Z,20.14
2023-06-03T13:34:19.560Z,20.44
2023-06-03T13:37:22.883Z,19.82
2023-06-03T13:40:25.811Z,19.47
2023-06-03T13:43:28.306Z,19.29
2023-06-03T13:46:30.942Z,19.75
2023-06-03T13:49:33.533Z,19.57
2023-06-03T13:52:36.191Z,19.44
2023-06-03T13:55:38.815Z,18.72
2023-06-03T13:58:41.430Z,18.45
2023-06-03T14:01:44.137Z,18.25
2023-06-03T14:04:46.767Z,18.39
2023-06-03T14:07:52.418Z,18.25
2023-06-03T14:10:54.958Z,18.38
2023-06-03T14:13:57.524Z,19.38
2023-06-03T14:17:00.230Z,18.42
2023-06-03T14:20:03.872Z,17.97
2023-06-03T14:23:06.550Z,19.02
2023-06-03T14:26:09.021Z,19.70
2023-06-03T14:29:13.053Z,18.01
2023-06-03T14:32:15.804Z,18.42
2023-06-03T14:35:18.597Z,17.41
2023-06-03T14:38:22.061Z,18.56
2023-06-03T14:41:24.701Z,18.29
2023-06-03T14:44:27.342Z,18.34
2023-06-03T14:47:29.993Z,18.48
2023-06-03T14:50:34.173Z,18.42
2023-06-03T14:53:36.684Z,18.18
2023-06-03T14:56:39.211Z,18.08
2023-06-03T14:59:41.897Z,17.75
2023-06-03T15:02:44.640Z,17.15
2023-06-03T15:05:47.508Z,19.16
2023-06-03T15:08:50.084Z,17.99
2023-06-03T15:11:52.536Z,17.75
2023-06-03T15:14:55.040Z,17.04
2023-06-03T15:17:57.746Z,17.39
2023-06-03T15:21:00.552Z,17.71
2023-06-03T15:24:04.112Z,16.58
2023-06-03T15:27:07.542Z,16.61
2023-06-03T15:30:10.616Z,16.47
2023-06-03T15:33:13.108Z,16.96
2023-06-03T15:36:15.796Z,16.74
2023-06-03T15:39:18.318Z,16.60
2023-06-03T15:42:20.932Z,17.18
2023-06-03T15:45:24.241Z,17.69
2023-06-03T15:48:26.805Z,17.53
2023-06-03T15:51:29.371Z,17.48
2023-06-03T15:54:31.936Z,17.82
2023-06-03T15:57:34.510Z,17.39
2023-06-03T16:00:38.111Z,16.85
2023-06-03T16:03:42.213Z,17.11
2023-06-03T16:06:45.122Z,17.15
2023-06-03T16:09:47.763Z,17.55
2023-06-03T16:12:50.439Z,18.10
2023-06-03T16:15:53.770Z,17.03
2023-06-03T16:18:56.502Z,16.48
2023-06-03T16:22:01.380Z,16.67
2023-06-03T16:25:04.482Z,16.98
2023-06-03T16:28:06.990Z,17.12
2023-06-03T16:31:09.552Z,17.71
2023-06-03T16:34:12.031Z,16.94
2023-06-03T16:37:15.492Z,16.48
2023-06-03T16:40:18.069Z,16.69
2023-06-03T16:43:21.100Z,17.01
2023-06-03T16:46:23.823Z,17.30
2023-06-03T16:49:26.884Z,16.05
2023-06-03T16:52:29.466Z,16.35
2023-06-03T16:55:32.082Z,16.75
2023-06-03T16:58:34.684Z,17.23
2023-06-03T17:01:37.294Z,17.82
2023-06-03T17:04:40.870Z,18.17
2023-06-03T17:07:43.408Z,16.53
2023-06-03T17:10:45.972Z,15.59
2023-06-03T17:13:48.887Z,16.21
2023-06-03T17:16:51.495Z,15.93
2023-06-03T17:19:54.046Z,17.34
2023-06-03T17:22:56.861Z,17.06
2023-06-03T17:25:59.384Z,17.31
2023-06-03T17:29:03.371Z,16.31
2023-06-03T17:32:06.246Z,16.61
2023-06-03T17:35:09.495Z,17.64
2023-06-03T17:38:12.285Z,18.00
2023-06-03T17:41:15.002Z,18.79
2023-06-03T17:44:20.948Z,18.50
2023-06-03T17:47:23.649Z,19.37
2023-06-03T17:50:26.248Z,20.56
2023-06-03T17:53:28.738Z,21.76
2023-06-03T17:56:32.441Z,22.54
2023-06-03T17:59:38.674Z,23.51
2023-06-03T18:02:41.210Z,24.29
2023-06-03T18:05:43.929Z,25.00
2023-06-03T18:08:47.044Z,25.64
2023-06-03T18:11:49.674Z,26.33
2023-06-03T18:14:52.228Z,26.52
2023-06-03T18:17:56.068Z,27.32
2023-06-03T18:20:58.850Z,27.82
2023-06-03T18:24:01.473Z,28.21
2023-06-03T18:27:04.088Z,28.99
2023-06-03T18:30:08.931Z,29.61
2023-06-03T18:33:11.504Z,29.98
2023-06-03T18:36:14.539Z,31.04
2023-06-03T18:39:17.544Z,31.50
2023-06-03T18:42:20.035Z,32.10
2023-06-03T18:45:23.275Z,32.84
2023-06-03T18:48:26.010Z,32.88
2023-06-03T18:51:28.640Z,33.37
2023-06-03T18:54:31.620Z,33.15
2023-06-03T18:57:35.538Z,34.21
2023-06-03T19:00:38.927Z,34.51
2023-06-03T19:06:44.925Z,34.76
2023-06-03T19:09:47.563Z,34.62
2023-06-03T19:12:52.963Z,34.89
2023-06-03T19:15:55.520Z,35.67
2023-06-03T19:18:58.108Z,35.99
2023-06-03T19:22:00.752Z,36.24
2023-06-03T19:25:03.537Z,36.23
2023-06-03T19:28:06.281Z,36.87
2023-06-03T19:31:08.954Z,37.36
2023-06-03T19:34:12.231Z,37.38
2023-06-03T19:37:14.812Z,37.23
2023-06-03T19:40:17.497Z,37.21
2023-06-03T19:43:20.026Z,37.59
2023-06-03T19:46:22.948Z,38.08
2023-06-03T19:49:26.244Z,38.23
2023-06-03T19:52:29.716Z,38.84
2023-06-03T19:55:32.321Z,39.10
2023-06-03T19:58:35.008Z,39.21
2023-06-03T20:01:37.689Z,39.68
2023-06-03T20:04:40.586Z,39.47
2023-06-03T20:07:43.334Z,39.80
2023-06-03T20:10:46.223Z,39.97
2023-06-03T20:13:48.725Z,40.55
2023-06-03T20:16:51.646Z,40.38
2023-06-03T20:19:54.298Z,40.44
2023-06-03T20:22:59.068Z,40.09
2023-06-03T20:26:03.066Z,40.27
2023-06-03T20:29:05.816Z,40.36
2023-06-03T20:32:08.923Z,40.37
2023-06-03T20:35:11.949Z,40.47
2023-06-03T20:38:14.684Z,40.84
2023-06-03T20:41:17.248Z,40.56
2023-06-03T20:44:19.866Z,40.44
2023-06-03T20:47:22.459Z,41.23
2023-06-03T20:50:25.096Z,42.06
2023-06-03T20:53:27.593Z,42.27
2023-06-03T20:56:30.081Z,42.62
2023-06-03T20:59:34.084Z,42.62
2023-06-03T21:02:36.661Z,42.42
2023-06-03T21:05:39.212Z,42.80
2023-06-03T21:08:41.842Z,43.07
2023-06-03T21:11:44.429Z,45.95
2023-06-03T21:14:51.099Z,47.66
2023-06-03T21:17:53.666Z,48.95
2023-06-03T21:20:56.257Z,49.77
2023-06-03T21:23:58.834Z,49.60
2023-06-03T21:27:01.573Z,49.88
2023-06-03T21:30:04.479Z,49.77
2023-06-03T21:33:07.164Z,50.65
2023-06-03T21:36:09.712Z,50.09
2023-06-03T21:39:12.229Z,50.56
2023-06-03T21:42:16.086Z,51.12
2023-06-03T21:45:18.688Z,50.61
2023-06-03T21:48:21.553Z,50.70
2023-06-03T21:51:25.810Z,50.82
2023-06-03T21:54:28.403Z,51.68
2023-06-03T21:57:32.112Z,52.24
2023-06-03T22:00:34.592Z,52.49
2023-06-03T22:03:37.083Z,52.73
2023-06-03T22:06:39.616Z,53.22
2023-06-03T22:09:42.387Z,53.58
2023-06-03T22:12:44.987Z,54.07
2023-06-03T22:15:47.633Z,54.39
2023-06-03T22:18:50.211Z,54.96
2023-06-03T22:21:52.994Z,54.16
2023-06-03T22:24:56.036Z,54.49
2023-06-03T22:27:58.589Z,54.60
2023-06-03T22:31:01.686Z,52.86
2023-06-03T22:34:04.892Z,52.64
2023-06-03T22:37:07.619Z,53.10
2023-06-03T22:40:11.125Z,53.76
2023-06-03T22:43:13.743Z,53.88
2023-06-03T22:46:16.344Z,53.39
2023-06-03T22:49:19.242Z,54.00
2023-06-03T22:52:21.734Z,54.05
2023-06-03T22:55:24.979Z,53.51
2023-06-03T22:58:27.536Z,53.13
2023-06-03T23:01:30.225Z,53.86
2023-06-03T23:04:32.763Z,54.63
2023-06-03T23:07:35.534Z,54.72
2023-06-03T23:10:38.065Z,54.39
2023-06-03T23:13:42.189Z,54.77
2023-06-03T23:16:44.753Z,54.70
2023-06-03T23:19:47.338Z,54.49
2023-06-03T23:22:49.924Z,54.63
2023-06-03T23:25:52.569Z,55.05
2023-06-03T23:28:55.177Z,55.27
2023-06-03T23:31:57.838Z,54.64
2023-06-03T23:35:00.450Z,55.29
2023-06-03T23:38:02.963Z,56.35
2023-06-03T23:41:06.627Z,57.04
2023-06-03T23:44:09.588Z,57.44
2023-06-03T23:47:12.203Z,58.25
2023-06-03T23:50:14.736Z,58.52
2023-06-03T23:53:17.228Z,59.32
2023-06-03T23:56:19.843Z,60.16
2023-06-03T23:59:22.417Z,60.69
